createdAt,value
2022-09-12T00:00:51.614Z,4.30
2022-09-12T00:06:22.347Z,3.80
2022-09-12T00:11:27.003Z,5.30
2022-09-12T00:16:31.672Z,5.40
2022-09-12T00:21:36.308Z,5.00
2022-09-12T00:26:39.275Z,8.80
2022-09-12T00:31:41.951Z,5.60
2022-09-12T00:36:45.086Z,7.00
2022-09-12T00:41:47.787Z,5.40
2022-09-12T00:46:59.506Z,6.70
2022-09-12T00:52:21.046Z,4.90
2022-09-12T00:57:30.078Z,5.10
2022-09-12T01:02:32.788Z,6.50
2022-09-12T01:07:40.045Z,5.20
2022-09-12T01:12:43.825Z,6.10
2022-09-12T01:17:58.687Z,7.60
2022-09-12T01:23:31.284Z,4.20
2022-09-12T01:28:52.308Z,4.80
2022-09-12T01:34:26.475Z,6.70
2022-09-12T01:40:03.391Z,3.70
2022-09-12T01:45:39.636Z,4.80
2022-09-12T01:51:00.467Z,4.70
2022-09-12T01:56:26.628Z,3.90
2022-09-12T02:01:34.017Z,5.00
2022-09-12T02:06:56.171Z,5.80
2022-09-12T02:12:01.533Z,6.60
2022-09-12T02:17:13.098Z,4.30
2022-09-12T02:22:19.942Z,5.80
2022-09-12T02:27:30.312Z,4.90
2022-09-12T02:32:43.660Z,5.60
2022-09-12T02:38:05.000Z,3.90
2022-09-12T02:43:07.888Z,5.40
2022-09-12T02:48:23.921Z,4.30
2022-09-12T02:53:26.818Z,5.20
2022-09-12T02:58:32.342Z,5.30
2022-09-12T03:03:50.241Z,6.20
2022-09-12T03:09:33.150Z,3.50
2022-09-12T03:14:47.852Z,6.00
2022-09-12T03:20:19.628Z,4.80
2022-09-12T03:25:29.400Z,7.80
2022-09-12T03:30:37.149Z,5.60
2022-09-12T03:35:40.524Z,4.70
2022-09-12T03:40:43.810Z,5.30
2022-09-12T03:45:52.016Z,4.10
2022-09-12T03:50:54.777Z,5.70
2022-09-12T03:55:58.302Z,8.40
2022-09-12T04:01:01.478Z,7.10
2022-09-12T04:06:05.042Z,7.40
2022-09-12T04:11:11.613Z,4.30
2022-09-12T04:16:15.716Z,6.80
2022-09-12T04:21:22.024Z,5.80
2022-09-12T04:26:24.754Z,5.00
2022-09-12T04:31:27.522Z,5.20
2022-09-12T04:36:30.349Z,4.50
2022-09-12T04:41:35.689Z,3.90
2022-09-12T04:46:42.617Z,6.00
2022-09-12T04:51:46.202Z,5.80
2022-09-12T04:56:50.607Z,5.50
2022-09-12T05:01:53.550Z,6.90
2022-09-12T05:06:56.352Z,4.60
2022-09-12T05:12:04.108Z,7.70
2022-09-12T05:17:08.196Z,6.00
2022-09-12T05:22:10.894Z,5.90
2022-09-12T05:27:13.565Z,4.10
2022-09-12T05:32:16.228Z,6.50
2022-09-12T05:37:18.988Z,5.40
2022-09-12T05:42:22.004Z,4.80
2022-09-12T05:47:24.903Z,6.40
2022-09-12T05:52:27.773Z,3.90
2022-09-12T05:57:30.518Z,4.20
2022-09-12T06:02:35.009Z,4.90
2022-09-12T06:07:38.583Z,5.00
2022-09-12T06:12:41.284Z,3.10
2022-09-12T06:17:46.416Z,4.80
2022-09-12T06:22:55.794Z,6.90
2022-09-12T06:27:58.751Z,4.60
2022-09-12T06:33:01.506Z,10.10
2022-09-12T06:38:05.410Z,5.50
2022-09-12T06:43:08.078Z,6.00
2022-09-12T06:48:10.738Z,6.70
2022-09-12T06:53:13.374Z,4.50
2022-09-12T06:58:16.310Z,6.30
2022-09-12T07:03:19.538Z,9.40
2022-09-12T07:08:22.208Z,5.50
2022-09-12T07:13:25.527Z,5.30
2022-09-12T07:18:29.424Z,4.90
2022-09-12T07:23:32.770Z,5.00
2022-09-12T07:28:35.986Z,4.80
2022-09-12T07:33:40.032Z,4.40
2022-09-12T07:38:44.136Z,5.80
2022-09-12T07:43:48.075Z,3.90
2022-09-12T07:48:55.778Z,6.30
2022-09-12T07:53:58.601Z,4.30
2022-09-12T07:59:02.405Z,4.00
2022-09-12T08:04:05.386Z,3.50
2022-09-12T08:09:08.371Z,6.90
2022-09-12T08:14:11.304Z,5.10
2022-09-12T08:19:14.220Z,8.30
2022-09-12T08:24:17.496Z,9.90
2022-09-12T08:29:21.066Z,4.60
2022-09-12T08:34:27.685Z,4.40
2022-09-12T08:39:30.885Z,5.50
2022-09-12T08:44:53.623Z,3.30
2022-09-12T08:50:09.025Z,4.60
2022-09-12T08:55:27.678Z,5.10
2022-09-12T09:00:42.796Z,3.80
2022-09-12T09:06:02.607Z,4.90
2022-09-12T09:11:14.616Z,3.50
2022-09-12T09:16:48.378Z,4.80
2022-09-12T09:21:57.486Z,4.50
2022-09-12T09:27:41.610Z,5.30
2022-09-12T09:32:51.151Z,3.20
2022-09-12T09:38:18.917Z,4.90
2022-09-12T09:43:23.976Z,5.00
2022-09-12T09:48:33.054Z,6.40
2022-09-12T09:53:43.262Z,3.60
2022-09-12T09:58:46.115Z,4.30
2022-09-12T10:03:54.264Z,3.80
2022-09-12T10:09:14.804Z,4.80
2022-09-12T10:14:31.380Z,5.40
2022-09-12T10:19:40.400Z,5.30
2022-09-12T10:24:49.222Z,4.80
2022-09-12T10:30:00.636Z,3.60
2022-09-12T10:35:25.556Z,3.90
2022-09-12T10:41:03.823Z,5.90
2022-09-12T10:46:19.867Z,5.40
2022-09-12T10:51:25.881Z,3.90
2022-09-12T10:56:30.984Z,4.10
2022-09-12T11:01:45.245Z,5.10
2022-09-12T11:07:20.796Z,3.70
2022-09-12T11:12:35.292Z,5.10
2022-09-12T11:17:45.112Z,3.80
2022-09-12T11:23:17.210Z,5.50
2022-09-12T11:28:35.894Z,3.80
2022-09-12T11:33:56.509Z,3.70
2022-09-12T11:39:14.673Z,3.60
2022-09-12T11:44:21.494Z,5.80
2022-09-12T11:49:38.586Z,3.70
2022-09-12T11:54:59.606Z,5.40
2022-09-12T12:00:27.807Z,4.80
2022-09-12T12:06:01.949Z,4.10
2022-09-12T12:11:06.534Z,3.50
2022-09-12T12:16:31.338Z,3.20
2022-09-12T12:21:52.254Z,4.30
2022-09-12T12:26:58.154Z,7.60
2022-09-12T12:32:06.528Z,3.20
2022-09-12T12:37:21.108Z,4.60
2022-09-12T12:42:34.558Z,4.10
2022-09-12T12:47:37.692Z,3.30
2022-09-12T12:52:50.639Z,5.10
2022-09-12T12:57:56.054Z,5.30
2022-09-12T13:03:01.543Z,2.70
2022-09-12T13:08:19.269Z,3.10
2022-09-12T13:14:02.082Z,3.80
2022-09-12T13:19:08.448Z,4.80
2022-09-12T13:24:17.142Z,2.60
2022-09-12T13:29:22.327Z,4.40
2022-09-12T13:34:26.301Z,2.70
2022-09-12T13:39:35.684Z,2.10
2022-09-12T13:44:50.934Z,2.10
2022-09-12T13:49:54.975Z,3.10
2022-09-12T13:54:59.579Z,3.90
2022-09-12T14:00:07.557Z,2.80
2022-09-12T14:05:22.417Z,2.00
2022-09-12T14:10:39.500Z,2.40
2022-09-12T14:15:47.492Z,4.30
2022-09-12T14:20:53.445Z,2.20
2022-09-12T14:26:00.004Z,2.70
2022-09-12T14:31:10.519Z,3.10
2022-09-12T14:36:24.493Z,3.00
2022-09-12T14:41:34.413Z,4.90
2022-09-12T14:46:39.216Z,3.20
2022-09-12T14:51:51.177Z,5.90
2022-09-12T14:56:55.583Z,4.00
2022-09-12T15:02:13.555Z,2.80
2022-09-12T15:07:22.837Z,2.30
2022-09-12T15:12:25.603Z,3.40
2022-09-12T15:17:28.506Z,2.20
2022-09-12T15:22:33.158Z,2.10
2022-09-12T15:27:35.864Z,4.10
2022-09-12T15:32:40.161Z,3.40
2022-09-12T15:37:42.803Z,2.10
2022-09-12T15:42:45.498Z,3.80
2022-09-12T15:47:48.300Z,3.70
2022-09-12T15:52:51.492Z,3.60
2022-09-12T15:57:54.512Z,3.70
2022-09-12T16:02:57.459Z,3.60
2022-09-12T16:08:00.408Z,4.00
2022-09-12T16:13:04.641Z,2.90
2022-09-12T16:18:08.075Z,6.20
2022-09-12T16:23:13.930Z,4.20
2022-09-12T16:28:16.570Z,4.10
2022-09-12T16:33:19.271Z,4.00
2022-09-12T16:38:22.604Z,3.10
2022-09-12T16:43:25.338Z,4.10
2022-09-12T16:48:28.049Z,4.40
2022-09-12T16:53:35.653Z,3.60
2022-09-12T16:58:42.069Z,3.60
2022-09-12T17:03:45.861Z,4.10
2022-09-12T17:08:51.063Z,4.30
2022-09-12T17:14:11.375Z,3.80
2022-09-12T17:19:22.328Z,3.10
2022-09-12T17:24:25.424Z,3.90
2022-09-12T17:29:28.743Z,5.30
2022-09-12T17:34:31.964Z,6.30
2022-09-12T17:39:34.597Z,6.90
2022-09-12T17:44:37.658Z,5.10
2022-09-12T17:49:40.678Z,6.30
2022-09-12T17:54:43.349Z,5.20
2022-09-12T17:59:45.977Z,6.40
2022-09-12T18:04:48.760Z,4.20
2022-09-12T18:09:51.715Z,8.80
2022-09-12T18:14:54.447Z,14.10
2022-09-12T18:19:57.133Z,19.30
2022-09-12T18:24:59.860Z,29.20
2022-09-12T18:30:20.611Z,22.60
2022-09-12T18:35:24.509Z,21.10
2022-09-12T18:40:27.135Z,19.20
2022-09-12T18:45:29.805Z,15.70
2022-09-12T18:50:33.322Z,11.50
2022-09-12T18:55:36.122Z,9.60
2022-09-12T19:00:41.110Z,11.90
2022-09-12T19:05:43.978Z,8.30
2022-09-12T19:10:54.868Z,7.70
2022-09-12T19:15:59.620Z,6.70
2022-09-12T19:21:04.061Z,6.10
2022-09-12T19:26:08.885Z,6.60
2022-09-12T19:31:14.296Z,6.70
2022-09-12T19:36:43.750Z,6.60
2022-09-12T19:41:43.012Z,8.90
2022-09-12T19:46:45.734Z,8.20
2022-09-12T19:51:48.535Z,10.20
2022-09-12T19:56:51.160Z,11.70
2022-09-12T20:01:53.946Z,20.20
2022-09-12T20:06:56.811Z,20.50
2022-09-12T20:11:59.441Z,18.30
2022-09-12T20:17:02.101Z,13.50
2022-09-12T20:22:05.156Z,17.50
2022-09-12T20:27:08.217Z,13.90
2022-09-12T20:32:11.565Z,14.80
2022-09-12T20:37:14.719Z,14.70
2022-09-12T20:42:17.355Z,15.40
2022-09-12T20:47:20.034Z,18.00
2022-09-12T20:52:22.684Z,14.90
2022-09-12T20:57:25.557Z,15.80
2022-09-12T21:02:29.990Z,11.60
2022-09-12T21:07:32.979Z,11.70
2022-09-12T21:12:35.585Z,12.50
2022-09-12T21:17:38.277Z,11.50
2022-09-12T21:22:40.973Z,12.40
2022-09-12T21:27:43.593Z,15.20
2022-09-12T21:32:46.377Z,14.10
2022-09-12T21:37:52.989Z,14.20
2022-09-12T21:47:58.973Z,13.70
2022-09-12T21:53:01.654Z,11.90
2022-09-12T21:58:04.313Z,15.60
2022-09-12T22:03:08.271Z,11.10
2022-09-12T22:08:11.731Z,10.30
2022-09-12T22:13:14.409Z,9.20
2022-09-12T22:18:17.018Z,10.70
2022-09-12T22:23:38.039Z,10.50
2022-09-12T22:28:41.623Z,10.20
2022-09-12T22:33:44.976Z,9.80
2022-09-12T22:38:47.742Z,9.80
2022-09-12T22:43:50.570Z,9.90
2022-09-12T22:48:55.790Z,9.10
2022-09-12T22:53:59.178Z,9.90
2022-09-12T22:59:02.150Z,9.30
2022-09-12T23:04:05.461Z,9.20
2022-09-12T23:09:08.160Z,11.20
2022-09-12T23:14:10.830Z,12.50
2022-09-12T23:19:13.660Z,10.80
2022-09-12T23:24:16.436Z,9.40
2022-09-12T23:29:19.045Z,9.60
2022-09-12T23:34:21.752Z,9.30
2022-09-12T23:39:24.555Z,7.00
2022-09-12T23:44:27.247Z,8.00
2022-09-12T23:49:30.270Z,9.00
2022-09-12T23:54:32.959Z,10.00
2022-09-12T23:59:35.626Z,7.40
